createdAt,value
2019-03-29T00:04:24.891Z,49.25
2019-03-29T00:09:31.487Z,41.17
2019-03-29T00:14:37.580Z,44.87
2019-03-29T00:19:43.274Z,40.73
2019-03-29T00:24:48.873Z,41.40
2019-03-29T00:29:55.284Z,42.57
2019-03-29T00:35:01.701Z,43.93
2019-03-29T00:40:07.832Z,48.68
2019-03-29T00:45:14.952Z,47.00
2019-03-29T00:50:20.771Z,45.43
2019-03-29T00:55:26.501Z,44.30
2019-03-29T01:00:33.660Z,50.40
2019-03-29T01:05:39.492Z,51.87
2019-03-29T01:10:45.543Z,50.63
2019-03-29T01:15:51.654Z,53.17
2019-03-29T01:20:57.356Z,49.17
2019-03-29T01:26:03.107Z,54.00
2019-03-29T01:31:09.230Z,55.10
2019-03-29T01:36:14.897Z,53.57
2019-03-29T01:41:20.559Z,53.67
2019-03-29T01:46:26.072Z,60.10
2019-03-29T01:51:31.909Z,56.68
2019-03-29T01:56:37.677Z,52.57
2019-03-29T02:01:43.790Z,53.25
2019-03-29T02:06:49.569Z,52.00
2019-03-29T02:11:55.312Z,45.53
2019-03-29T02:17:01.841Z,52.53
2019-03-29T02:22:09.079Z,52.67
2019-03-29T02:27:15.039Z,51.35
2019-03-29T02:32:20.569Z,51.27
2019-03-29T02:37:26.962Z,50.97
2019-03-29T02:42:33.496Z,47.88
2019-03-29T02:47:39.170Z,54.97
2019-03-29T02:52:45.167Z,55.23
2019-03-29T02:57:52.259Z,53.15
2019-03-29T03:02:58.601Z,49.27
2019-03-29T03:08:04.392Z,50.20
2019-03-29T03:13:10.546Z,54.43
2019-03-29T03:18:16.240Z,55.63
2019-03-29T03:23:24.026Z,54.23
2019-03-29T03:28:30.029Z,52.03
2019-03-29T03:33:36.497Z,47.07
2019-03-29T03:38:42.244Z,49.73
2019-03-29T03:43:48.398Z,46.97
2019-03-29T03:48:54.160Z,45.00
2019-03-29T03:54:00.471Z,42.87
2019-03-29T03:59:06.643Z,46.48
2019-03-29T04:04:13.579Z,41.63
2019-03-29T04:09:19.589Z,45.57
2019-03-29T04:14:25.586Z,42.00
2019-03-29T04:19:31.544Z,42.27
2019-03-29T04:24:37.344Z,45.60
2019-03-29T04:29:43.797Z,40.98
2019-03-29T04:34:49.837Z,41.75
2019-03-29T04:40:06.853Z,43.33
2019-03-29T04:45:03.409Z,38.17
2019-03-29T04:50:09.821Z,39.20
2019-03-29T04:55:15.524Z,41.07
2019-03-29T05:00:22.122Z,39.90
2019-03-29T05:05:27.975Z,35.83
2019-03-29T05:10:34.147Z,34.73
2019-03-29T05:15:39.864Z,33.80
2019-03-29T05:20:45.576Z,33.10
2019-03-29T05:25:51.351Z,34.70
2019-03-29T05:30:57.126Z,35.70
2019-03-29T05:36:03.240Z,32.37
2019-03-29T05:41:09.596Z,35.93
2019-03-29T05:46:15.717Z,34.37
2019-03-29T05:51:21.425Z,40.70
2019-03-29T05:56:27.229Z,30.87
2019-03-29T06:01:32.926Z,30.37
2019-03-29T06:06:39.056Z,34.33
2019-03-29T06:11:44.842Z,34.43
2019-03-29T06:16:50.559Z,29.73
2019-03-29T06:21:56.343Z,32.40
2019-03-29T06:27:02.440Z,29.47
2019-03-29T06:32:08.322Z,28.75
2019-03-29T06:37:17.432Z,27.43
2019-03-29T06:42:23.172Z,22.80
2019-03-29T06:47:29.687Z,23.20
2019-03-29T06:52:35.576Z,23.97
2019-03-29T06:57:41.280Z,24.83
2019-03-29T07:02:46.991Z,23.33
2019-03-29T07:07:52.777Z,22.43
2019-03-29T07:12:58.640Z,22.35
2019-03-29T07:18:04.341Z,23.17
2019-03-29T07:23:10.373Z,21.10
2019-03-29T07:28:16.173Z,20.47
2019-03-29T07:33:21.880Z,21.93
2019-03-29T07:38:28.637Z,21.37
2019-03-29T07:43:34.997Z,18.80
2019-03-29T07:48:41.775Z,17.92
2019-03-29T07:53:48.472Z,20.17
2019-03-29T07:58:54.762Z,17.32
2019-03-29T08:04:00.650Z,20.27
2019-03-29T08:09:21.318Z,20.97
2019-03-29T08:14:15.413Z,20.00
2019-03-29T08:19:21.319Z,17.82
2019-03-29T08:24:27.693Z,17.90
2019-03-29T08:29:33.576Z,17.23
2019-03-29T08:34:39.722Z,15.55
2019-03-29T08:39:45.513Z,15.90
2019-03-29T08:44:51.301Z,15.97
2019-03-29T08:49:57.079Z,15.13
2019-03-29T08:55:02.877Z,15.75
2019-03-29T09:00:09.931Z,17.02
2019-03-29T09:05:15.896Z,16.23
2019-03-29T09:10:26.129Z,15.60
2019-03-29T09:15:32.295Z,15.50
2019-03-29T09:20:40.416Z,14.25
2019-03-29T09:25:46.680Z,12.88
2019-03-29T09:30:56.400Z,14.45
2019-03-29T09:36:00.636Z,12.63
2019-03-29T09:41:06.751Z,12.93
2019-03-29T09:46:12.699Z,12.28
2019-03-29T09:51:18.500Z,11.85
2019-03-29T09:56:38.097Z,11.08
2019-03-29T10:01:32.373Z,8.53
2019-03-29T10:06:39.604Z,8.23
2019-03-29T10:11:45.522Z,10.60
2019-03-29T10:16:52.796Z,9.20
2019-03-29T10:21:59.538Z,7.87
2019-03-29T10:27:05.322Z,11.10
2019-03-29T10:32:11.855Z,10.48
2019-03-29T10:37:18.050Z,10.38
2019-03-29T10:42:23.848Z,10.55
2019-03-29T10:47:43.288Z,10.67
2019-03-29T10:52:37.045Z,9.80
2019-03-29T10:57:42.822Z,10.98
2019-03-29T11:02:49.721Z,12.30
2019-03-29T11:07:55.523Z,11.88
2019-03-29T11:13:12.569Z,11.95
2019-03-29T11:18:09.421Z,9.33
2019-03-29T11:23:15.319Z,8.58
2019-03-29T11:28:21.101Z,10.00
2019-03-29T11:33:27.338Z,9.10
2019-03-29T11:38:33.115Z,10.55
2019-03-29T11:43:39.029Z,10.45
2019-03-29T11:48:44.811Z,9.93
2019-03-29T11:53:52.318Z,10.32
2019-03-29T11:58:58.110Z,10.13
2019-03-29T12:04:05.282Z,10.00
2019-03-29T12:09:11.062Z,9.98
2019-03-29T12:14:17.154Z,11.80
2019-03-29T12:19:23.035Z,9.95
2019-03-29T12:24:29.166Z,10.45
2019-03-29T12:29:35.084Z,12.28
2019-03-29T12:34:40.961Z,11.68
2019-03-29T12:39:46.839Z,11.75
2019-03-29T12:44:52.638Z,11.93
2019-03-29T12:49:58.428Z,11.00
2019-03-29T12:55:04.413Z,9.13
2019-03-29T13:00:10.710Z,10.15
2019-03-29T13:05:17.554Z,9.28
2019-03-29T13:10:23.433Z,12.90
2019-03-29T13:15:30.261Z,7.85
2019-03-29T13:20:36.024Z,8.58
2019-03-29T13:25:41.795Z,7.10
2019-03-29T13:30:47.649Z,6.92
2019-03-29T13:35:53.674Z,7.87
2019-03-29T13:40:59.476Z,6.53
2019-03-29T13:46:05.378Z,5.90
2019-03-29T13:51:11.455Z,6.53
2019-03-29T13:56:17.232Z,6.80
2019-03-29T14:01:23.312Z,5.78
2019-03-29T14:06:29.266Z,6.45
2019-03-29T14:11:35.056Z,5.78
2019-03-29T14:16:40.862Z,5.17
2019-03-29T14:21:46.983Z,4.53
2019-03-29T14:26:52.842Z,5.05
2019-03-29T14:31:58.612Z,5.85
2019-03-29T14:37:04.408Z,5.17
2019-03-29T14:42:12.780Z,5.40
2019-03-29T14:47:18.861Z,5.10
2019-03-29T14:52:24.634Z,5.53
2019-03-29T14:57:30.417Z,5.78
2019-03-29T15:02:36.184Z,5.10
2019-03-29T15:07:43.197Z,5.05
2019-03-29T15:12:50.058Z,4.85
2019-03-29T15:17:56.232Z,6.25
2019-03-29T15:23:02.036Z,5.37
2019-03-29T15:28:07.933Z,6.00
2019-03-29T15:33:13.814Z,5.53
2019-03-29T15:38:19.664Z,5.95
2019-03-29T15:43:25.444Z,5.42
2019-03-29T15:48:31.301Z,6.05
2019-03-29T15:53:37.395Z,5.75
2019-03-29T15:58:43.267Z,5.70
2019-03-29T16:03:49.142Z,5.33
2019-03-29T16:08:55.021Z,5.80
2019-03-29T16:14:00.874Z,6.42
2019-03-29T16:19:06.906Z,6.33
2019-03-29T16:24:12.783Z,6.22
2019-03-29T16:29:19.658Z,6.30
2019-03-29T16:34:25.456Z,6.83
2019-03-29T16:39:31.250Z,5.87
2019-03-29T16:44:37.022Z,6.40
2019-03-29T16:49:42.929Z,7.05
2019-03-29T16:54:48.697Z,7.20
2019-03-29T16:59:57.083Z,7.80
2019-03-29T17:05:03.228Z,7.60
2019-03-29T17:10:09.405Z,7.60
2019-03-29T17:15:15.935Z,7.75
2019-03-29T17:20:22.027Z,6.85
2019-03-29T17:25:28.505Z,7.58
2019-03-29T17:30:40.822Z,6.85
2019-03-29T17:35:46.664Z,7.25
2019-03-29T17:40:52.440Z,7.72
2019-03-29T17:45:59.485Z,7.45
2019-03-29T17:51:05.626Z,7.75
2019-03-29T17:56:11.788Z,8.48
2019-03-29T18:01:18.277Z,8.60
2019-03-29T18:06:24.416Z,9.55
2019-03-29T18:11:30.196Z,9.38
2019-03-29T18:16:36.321Z,8.93
2019-03-29T18:21:42.092Z,9.18
2019-03-29T18:26:47.978Z,8.53
2019-03-29T18:31:54.353Z,9.10
2019-03-29T18:37:02.810Z,9.25
2019-03-29T18:42:08.629Z,8.90
2019-03-29T18:47:14.528Z,8.80
2019-03-29T18:52:21.452Z,9.10
2019-03-29T18:57:27.290Z,10.10
2019-03-29T19:02:33.074Z,10.05
2019-03-29T19:07:39.302Z,10.05
2019-03-29T19:12:45.231Z,9.58
2019-03-29T19:17:51.078Z,12.93
2019-03-29T19:22:57.456Z,10.38
2019-03-29T19:28:03.705Z,11.35
2019-03-29T19:33:10.907Z,12.33
2019-03-29T19:38:16.738Z,12.63
2019-03-29T19:43:22.541Z,12.98
2019-03-29T19:48:28.720Z,13.90
2019-03-29T19:53:35.611Z,12.93
2019-03-29T19:58:41.788Z,14.47
2019-03-29T20:03:48.063Z,16.52
2019-03-29T20:08:54.625Z,14.63
2019-03-29T20:14:00.760Z,13.80
2019-03-29T20:19:06.506Z,13.60
2019-03-29T20:24:12.307Z,15.23
2019-03-29T20:29:18.032Z,14.07
2019-03-29T20:34:24.059Z,17.90
2019-03-29T20:39:29.877Z,14.47
2019-03-29T20:44:35.708Z,16.53
2019-03-29T20:49:43.026Z,16.77
2019-03-29T20:54:48.741Z,18.57
2019-03-29T20:59:54.591Z,16.77
2019-03-29T21:05:00.907Z,16.60
2019-03-29T21:10:08.151Z,15.40
2019-03-29T21:15:14.399Z,17.67
2019-03-29T21:20:20.311Z,16.65
2019-03-29T21:25:26.832Z,18.23
2019-03-29T21:30:32.602Z,19.47
2019-03-29T21:35:38.370Z,18.03
2019-03-29T21:40:44.649Z,18.33
2019-03-29T21:45:50.600Z,18.83
2019-03-29T21:50:56.457Z,19.13
2019-03-29T21:56:03.486Z,18.23
2019-03-29T22:01:10.352Z,19.30
2019-03-29T22:06:17.535Z,18.63
2019-03-29T22:11:23.495Z,18.77
2019-03-29T22:16:29.719Z,16.95
2019-03-29T22:21:35.902Z,19.20
2019-03-29T22:26:41.610Z,18.50
2019-03-29T22:31:48.178Z,20.00
2019-03-29T22:36:54.155Z,18.00
2019-03-29T22:42:00.963Z,17.93
2019-03-29T22:47:06.850Z,17.87
2019-03-29T22:52:12.670Z,17.63
2019-03-29T22:57:18.562Z,18.67
2019-03-29T23:02:25.357Z,20.83
2019-03-29T23:07:31.048Z,18.27
2019-03-29T23:12:36.871Z,19.53
2019-03-29T23:17:42.810Z,19.77
2019-03-29T23:22:48.798Z,18.87
2019-03-29T23:27:55.936Z,18.37
2019-03-29T23:33:02.350Z,18.40
2019-03-29T23:38:08.055Z,21.33
2019-03-29T23:43:14.934Z,20.37
2019-03-29T23:48:20.625Z,19.90
2019-03-29T23:53:26.334Z,19.97
2019-03-29T23:58:32.399Z,19.37
